sensor_id;sensor_type;location;lat;lon;timestamp;P1;durP1;ratioP1;P2;durP2;ratioP2
10701;SDS011;5402;50.004;8.246;2023-08-06T00:00:21;3.57;;;2.93;;
10701;SDS011;5402;50.004;8.246;2023-08-06T00:02:48;2.83;;;2.50;;
10701;SDS011;5402;50.004;8.246;2023-08-06T00:05:15;2.90;;;2.60;;
10701;SDS011;5402;50.004;8.246;2023-08-06T00:07:43;3.73;;;2.73;;
10701;SDS011;5402;50.004;8.246;2023-08-06T00:10:10;3.17;;;2.87;;
10701;SDS011;5402;50.004;8.246;2023-08-06T00:12:38;2.73;;;2.50;;
10701;SDS011;5402;50.004;8.246;2023-08-06T00:15:05;2.53;;;2.33;;
10701;SDS011;5402;50.004;8.246;2023-08-06T00:17:33;2.60;;;2.40;;
10701;SDS011;5402;50.004;8.246;2023-08-06T00:19:59;4.00;;;2.53;;
10701;SDS011;5402;50.004;8.246;2023-08-06T00:22:29;2.53;;;2.27;;
10701;SDS011;5402;50.004;8.246;2023-08-06T00:24:56;3.60;;;2.70;;
10701;SDS011;5402;50.004;8.246;2023-08-06T00:27:23;3.13;;;2.53;;
10701;SDS011;5402;50.004;8.246;2023-08-06T00:29:51;2.90;;;2.30;;
10701;SDS011;5402;50.004;8.246;2023-08-06T00:32:18;4.73;;;2.53;;
10701;SDS011;5402;50.004;8.246;2023-08-06T00:34:45;3.80;;;2.70;;
10701;SDS011;5402;50.004;8.246;2023-08-06T00:37:14;2.60;;;2.40;;
10701;SDS011;5402;50.004;8.246;2023-08-06T00:39:41;2.60;;;2.40;;
10701;SDS011;5402;50.004;8.246;2023-08-06T00:42:07;3.53;;;2.20;;
10701;SDS011;5402;50.004;8.246;2023-08-06T00:44:34;2.67;;;2.40;;
10701;SDS011;5402;50.004;8.246;2023-08-06T00:47:03;2.60;;;2.40;;
10701;SDS011;5402;50.004;8.246;2023-08-06T00:49:30;3.90;;;2.70;;
10701;SDS011;5402;50.004;8.246;2023-08-06T00:51:57;5.83;;;2.50;;
10701;SDS011;5402;50.004;8.246;2023-08-06T00:54:24;2.70;;;2.50;;
10701;SDS011;5402;50.004;8.246;2023-08-06T00:56:52;2.80;;;2.40;;
10701;SDS011;5402;50.004;8.246;2023-08-06T00:59:19;3.73;;;2.70;;
10701;SDS011;5402;50.004;8.246;2023-08-06T01:01:46;4.33;;;2.77;;
10701;SDS011;5402;50.004;8.246;2023-08-06T01:04:16;3.33;;;2.60;;
10701;SDS011;5402;50.004;8.246;2023-08-06T01:06:43;3.23;;;2.93;;
10701;SDS011;5402;50.004;8.246;2023-08-06T01:09:18;3.20;;;2.70;;
10701;SDS011;5402;50.004;8.246;2023-08-06T01:11:57;3.10;;;2.50;;
10701;SDS011;5402;50.004;8.246;2023-08-06T01:14:31;5.07;;;2.57;;
10701;SDS011;5402;50.004;8.246;2023-08-06T01:17:03;3.33;;;2.50;;
10701;SDS011;5402;50.004;8.246;2023-08-06T01:19:32;3.00;;;2.70;;
10701;SDS011;5402;50.004;8.246;2023-08-06T01:22:00;2.43;;;2.23;;
10701;SDS011;5402;50.004;8.246;2023-08-06T01:24:27;3.33;;;2.80;;
10701;SDS011;5402;50.004;8.246;2023-08-06T01:26:55;3.77;;;2.50;;
10701;SDS011;5402;50.004;8.246;2023-08-06T01:29:30;3.13;;;2.60;;
10701;SDS011;5402;50.004;8.246;2023-08-06T01:32:00;5.77;;;2.90;;
10701;SDS011;5402;50.004;8.246;2023-08-06T01:34:31;2.63;;;2.40;;
10701;SDS011;5402;50.004;8.246;2023-08-06T01:37:01;3.00;;;2.40;;
10701;SDS011;5402;50.004;8.246;2023-08-06T01:39:29;2.97;;;2.63;;
10701;SDS011;5402;50.004;8.246;2023-08-06T01:41:57;4.30;;;2.73;;
10701;SDS011;5402;50.004;8.246;2023-08-06T01:44:24;3.10;;;2.80;;
10701;SDS011;5402;50.004;8.246;2023-08-06T01:46:50;5.37;;;2.73;;
10701;SDS011;5402;50.004;8.246;2023-08-06T01:49:17;2.73;;;2.30;;
10701;SDS011;5402;50.004;8.246;2023-08-06T01:51:44;2.90;;;2.20;;
10701;SDS011;5402;50.004;8.246;2023-08-06T01:54:12;2.73;;;2.50;;
10701;SDS011;5402;50.004;8.246;2023-08-06T01:56:38;3.37;;;2.50;;
10701;SDS011;5402;50.004;8.246;2023-08-06T01:59:05;3.70;;;2.57;;
10701;SDS011;5402;50.004;8.246;2023-08-06T02:01:32;2.60;;;2.40;;
10701;SDS011;5402;50.004;8.246;2023-08-06T02:03:59;3.07;;;2.77;;
10701;SDS011;5402;50.004;8.246;2023-08-06T02:06:25;2.87;;;2.57;;
10701;SDS011;5402;50.004;8.246;2023-08-06T02:08:52;3.27;;;2.47;;
10701;SDS011;5402;50.004;8.246;2023-08-06T02:11:20;2.47;;;2.27;;
10701;SDS011;5402;50.004;8.246;2023-08-06T02:13:47;3.10;;;2.60;;
10701;SDS011;5402;50.004;8.246;2023-08-06T02:16:13;3.57;;;2.53;;
10701;SDS011;5402;50.004;8.246;2023-08-06T02:18:40;3.03;;;2.37;;
10701;SDS011;5402;50.004;8.246;2023-08-06T02:21:07;3.47;;;2.60;;
10701;SDS011;5402;50.004;8.246;2023-08-06T02:23:34;2.93;;;2.40;;
10701;SDS011;5402;50.004;8.246;2023-08-06T02:26:00;3.00;;;2.70;;
10701;SDS011;5402;50.004;8.246;2023-08-06T02:28:29;3.27;;;2.53;;
10701;SDS011;5402;50.004;8.246;2023-08-06T02:30:56;3.90;;;2.60;;
10701;SDS011;5402;50.004;8.246;2023-08-06T02:33:23;3.23;;;2.40;;
10701;SDS011;5402;50.004;8.246;2023-08-06T02:35:50;2.57;;;2.37;;
10701;SDS011;5402;50.004;8.246;2023-08-06T02:38:17;2.47;;;2.10;;
10701;SDS011;5402;50.004;8.246;2023-08-06T02:40:43;2.47;;;2.27;;
10701;SDS011;5402;50.004;8.246;2023-08-06T02:43:11;2.97;;;2.67;;
10701;SDS011;5402;50.004;8.246;2023-08-06T02:45:39;4.67;;;2.70;;
10701;SDS011;5402;50.004;8.246;2023-08-06T02:48:06;2.37;;;2.17;;
10701;SDS011;5402;50.004;8.246;2023-08-06T02:50:37;2.57;;;2.37;;
10701;SDS011;5402;50.004;8.246;2023-08-06T02:53:05;2.70;;;2.50;;
10701;SDS011;5402;50.004;8.246;2023-08-06T02:55:32;3.70;;;2.40;;
10701;SDS011;5402;50.004;8.246;2023-08-06T02:57:59;4.70;;;2.40;;
10701;SDS011;5402;50.004;8.246;2023-08-06T03:00:26;3.80;;;2.77;;
10701;SDS011;5402;50.004;8.246;2023-08-06T03:02:55;2.80;;;2.57;;
10701;SDS011;5402;50.004;8.246;2023-08-06T03:05:22;2.67;;;2.47;;
10701;SDS011;5402;50.004;8.246;2023-08-06T03:07:49;3.27;;;2.53;;
10701;SDS011;5402;50.004;8.246;2023-08-06T03:10:15;2.53;;;2.30;;
10701;SDS011;5402;50.004;8.246;2023-08-06T03:12:42;2.90;;;2.60;;
10701;SDS011;5402;50.004;8.246;2023-08-06T03:15:09;3.67;;;2.20;;
10701;SDS011;5402;50.004;8.246;2023-08-06T03:17:36;3.43;;;2.70;;
10701;SDS011;5402;50.004;8.246;2023-08-06T03:20:04;3.53;;;2.63;;
10701;SDS011;5402;50.004;8.246;2023-08-06T03:22:32;2.70;;;2.50;;
10701;SDS011;5402;50.004;8.246;2023-08-06T03:24:59;3.10;;;2.37;;
10701;SDS011;5402;50.004;8.246;2023-08-06T03:27:25;2.90;;;2.60;;
10701;SDS011;5402;50.004;8.246;2023-08-06T03:29:52;3.50;;;2.57;;
10701;SDS011;5402;50.004;8.246;2023-08-06T03:32:19;3.00;;;2.30;;
10701;SDS011;5402;50.004;8.246;2023-08-06T03:34:46;4.57;;;2.50;;
10701;SDS011;5402;50.004;8.246;2023-08-06T03:37:14;3.80;;;2.40;;
10701;SDS011;5402;50.004;8.246;2023-08-06T03:39:40;2.60;;;2.40;;
10701;SDS011;5402;50.004;8.246;2023-08-06T03:42:07;3.73;;;2.13;;
10701;SDS011;5402;50.004;8.246;2023-08-06T03:44:34;2.63;;;2.30;;
10701;SDS011;5402;50.004;8.246;2023-08-06T03:47:01;2.40;;;2.20;;
10701;SDS011;5402;50.004;8.246;2023-08-06T03:49:27;3.23;;;2.20;;
10701;SDS011;5402;50.004;8.246;2023-08-06T03:51:54;5.27;;;2.30;;
10701;SDS011;5402;50.004;8.246;2023-08-06T03:54:22;2.60;;;2.40;;
10701;SDS011;5402;50.004;8.246;2023-08-06T03:56:49;2.40;;;2.20;;
10701;SDS011;5402;50.004;8.246;2023-08-06T03:59:15;2.67;;;2.10;;
10701;SDS011;5402;50.004;8.246;2023-08-06T04:01:42;2.97;;;2.13;;
10701;SDS011;5402;50.004;8.246;2023-08-06T04:04:09;3.40;;;1.90;;
10701;SDS011;5402;50.004;8.246;2023-08-06T04:06:35;4.43;;;2.30;;
10701;SDS011;5402;50.004;8.246;2023-08-06T04:09:02;2.63;;;2.20;;
10701;SDS011;5402;50.004;8.246;2023-08-06T04:11:30;3.03;;;2.07;;
10701;SDS011;5402;50.004;8.246;2023-08-06T04:13:57;2.20;;;2.00;;
10701;SDS011;5402;50.004;8.246;2023-08-06T04:16:24;5.27;;;2.20;;
10701;SDS011;5402;50.004;8.246;2023-08-06T04:18:52;4.17;;;1.97;;
10701;SDS011;5402;50.004;8.246;2023-08-06T04:21:20;2.30;;;1.70;;
10701;SDS011;5402;50.004;8.246;2023-08-06T04:23:47;3.20;;;1.90;;
10701;SDS011;5402;50.004;8.246;2023-08-06T04:26:13;3.47;;;1.67;;
10701;SDS011;5402;50.004;8.246;2023-08-06T04:28:42;3.10;;;1.67;;
10701;SDS011;5402;50.004;8.246;2023-08-06T04:31:08;4.03;;;1.60;;
10701;SDS011;5402;50.004;8.246;2023-08-06T04:33:35;4.67;;;1.73;;
10701;SDS011;5402;50.004;8.246;2023-08-06T04:36:02;2.77;;;1.57;;
10701;SDS011;5402;50.004;8.246;2023-08-06T04:38:29;2.73;;;1.50;;
10701;SDS011;5402;50.004;8.246;2023-08-06T04:40:55;2.77;;;1.20;;
10701;SDS011;5402;50.004;8.246;2023-08-06T04:43:22;1.90;;;1.60;;
10701;SDS011;5402;50.004;8.246;2023-08-06T04:45:53;1.43;;;1.17;;
10701;SDS011;5402;50.004;8.246;2023-08-06T04:48:21;3.03;;;1.73;;
10701;SDS011;5402;50.004;8.246;2023-08-06T04:50:49;2.00;;;1.30;;
10701;SDS011;5402;50.004;8.246;2023-08-06T04:53:16;2.50;;;1.40;;
10701;SDS011;5402;50.004;8.246;2023-08-06T04:55:43;3.37;;;1.40;;
10701;SDS011;5402;50.004;8.246;2023-08-06T04:58:10;3.53;;;1.60;;
10701;SDS011;5402;50.004;8.246;2023-08-06T05:00:37;2.10;;;1.40;;
10701;SDS011;5402;50.004;8.246;2023-08-06T05:03:05;2.73;;;1.23;;
10701;SDS011;5402;50.004;8.246;2023-08-06T05:05:32;2.03;;;1.40;;
10701;SDS011;5402;50.004;8.246;2023-08-06T05:07:59;2.30;;;1.20;;
10701;SDS011;5402;50.004;8.246;2023-08-06T05:10:26;1.90;;;1.10;;
10701;SDS011;5402;50.004;8.246;2023-08-06T05:12:53;2.37;;;1.30;;
10701;SDS011;5402;50.004;8.246;2023-08-06T05:15:20;2.07;;;1.03;;
10701;SDS011;5402;50.004;8.246;2023-08-06T05:17:47;2.90;;;1.17;;
10701;SDS011;5402;50.004;8.246;2023-08-06T05:20:15;1.30;;;1.10;;
10701;SDS011;5402;50.004;8.246;2023-08-06T05:22:42;2.90;;;1.10;;
10701;SDS011;5402;50.004;8.246;2023-08-06T05:25:09;1.80;;;1.47;;
10701;SDS011;5402;50.004;8.246;2023-08-06T05:27:35;1.33;;;1.07;;
10701;SDS011;5402;50.004;8.246;2023-08-06T05:30:02;1.30;;;1.10;;
10701;SDS011;5402;50.004;8.246;2023-08-06T05:32:30;2.13;;;1.27;;
10701;SDS011;5402;50.004;8.246;2023-08-06T05:34:57;1.10;;;1.00;;
10701;SDS011;5402;50.004;8.246;2023-08-06T05:37:25;1.93;;;1.30;;
10701;SDS011;5402;50.004;8.246;2023-08-06T05:39:52;1.20;;;1.10;;
10701;SDS011;5402;50.004;8.246;2023-08-06T05:42:18;1.20;;;1.10;;
10701;SDS011;5402;50.004;8.246;2023-08-06T05:44:45;1.80;;;1.20;;
10701;SDS011;5402;50.004;8.246;2023-08-06T05:47:12;0.90;;;0.90;;
10701;SDS011;5402;50.004;8.246;2023-08-06T05:49:39;1.20;;;1.00;;
10701;SDS011;5402;50.004;8.246;2023-08-06T05:52:06;2.00;;;0.73;;
10701;SDS011;5402;50.004;8.246;2023-08-06T05:54:34;0.90;;;0.90;;
10701;SDS011;5402;50.004;8.246;2023-08-06T05:57:01;0.93;;;0.90;;
10701;SDS011;5402;50.004;8.246;2023-08-06T05:59:29;1.83;;;1.00;;
10701;SDS011;5402;50.004;8.246;2023-08-06T06:01:55;0.73;;;0.73;;
10701;SDS011;5402;50.004;8.246;2023-08-06T06:04:24;0.70;;;0.70;;
10701;SDS011;5402;50.004;8.246;2023-08-06T06:06:51;0.90;;;0.67;;
10701;SDS011;5402;50.004;8.246;2023-08-06T06:09:17;1.83;;;0.83;;
10701;SDS011;5402;50.004;8.246;2023-08-06T06:11:46;0.77;;;0.77;;
10701;SDS011;5402;50.004;8.246;2023-08-06T06:14:12;1.03;;;0.80;;
10701;SDS011;5402;50.004;8.246;2023-08-06T06:16:39;0.80;;;0.80;;
10701;SDS011;5402;50.004;8.246;2023-08-06T06:19:06;2.00;;;0.63;;
10701;SDS011;5402;50.004;8.246;2023-08-06T06:21:33;1.00;;;0.90;;
10701;SDS011;5402;50.004;8.246;2023-08-06T06:23:59;0.90;;;0.90;;
10701;SDS011;5402;50.004;8.246;2023-08-06T06:26:26;1.03;;;0.80;;
10701;SDS011;5402;50.004;8.246;2023-08-06T06:28:54;0.70;;;0.70;;
10701;SDS011;5402;50.004;8.246;2023-08-06T06:31:21;0.80;;;0.73;;
10701;SDS011;5402;50.004;8.246;2023-08-06T06:33:48;0.80;;;0.80;;
10701;SDS011;5402;50.004;8.246;2023-08-06T06:36:15;0.80;;;0.80;;
10701;SDS011;5402;50.004;8.246;2023-08-06T06:38:41;0.90;;;0.80;;
10701;SDS011;5402;50.004;8.246;2023-08-06T06:41:08;0.87;;;0.87;;
10701;SDS011;5402;50.004;8.246;2023-08-06T06:43:35;7.30;;;5.87;;
10701;SDS011;5402;50.004;8.246;2023-08-06T06:46:04;9.53;;;8.17;;
10701;SDS011;5402;50.004;8.246;2023-08-06T06:48:31;5.20;;;4.07;;
10701;SDS011;5402;50.004;8.246;2023-08-06T06:50:58;1.23;;;1.13;;
10701;SDS011;5402;50.004;8.246;2023-08-06T06:53:25;1.13;;;0.93;;
10701;SDS011;5402;50.004;8.246;2023-08-06T06:55:53;2.10;;;0.97;;
10701;SDS011;5402;50.004;8.246;2023-08-06T06:58:19;1.13;;;1.07;;
10701;SDS011;5402;50.004;8.246;2023-08-06T07:00:46;1.10;;;1.00;;
10701;SDS011;5402;50.004;8.246;2023-08-06T07:03:14;0.90;;;0.90;;
10701;SDS011;5402;50.004;8.246;2023-08-06T07:05:41;1.17;;;1.07;;
10701;SDS011;5402;50.004;8.246;2023-08-06T07:08:09;1.20;;;1.10;;
10701;SDS011;5402;50.004;8.246;2023-08-06T07:10:36;4.67;;;1.27;;
10701;SDS011;5402;50.004;8.246;2023-08-06T07:13:03;1.20;;;1.00;;
10701;SDS011;5402;50.004;8.246;2023-08-06T07:15:30;1.53;;;1.20;;
10701;SDS011;5402;50.004;8.246;2023-08-06T07:17:56;1.37;;;1.00;;
10701;SDS011;5402;50.004;8.246;2023-08-06T07:20:25;1.07;;;0.97;;
10701;SDS011;5402;50.004;8.246;2023-08-06T07:22:54;1.13;;;1.03;;
10701;SDS011;5402;50.004;8.246;2023-08-06T07:25:21;1.30;;;1.10;;
10701;SDS011;5402;50.004;8.246;2023-08-06T07:27:47;0.80;;;0.80;;
10701;SDS011;5402;50.004;8.246;2023-08-06T07:30:14;1.07;;;1.00;;
10701;SDS011;5402;50.004;8.246;2023-08-06T07:32:41;0.80;;;0.80;;
10701;SDS011;5402;50.004;8.246;2023-08-06T07:35:08;4.57;;;3.57;;
10701;SDS011;5402;50.004;8.246;2023-08-06T07:37:38;2.40;;;2.20;;
10701;SDS011;5402;50.004;8.246;2023-08-06T07:40:06;9.10;;;6.70;;
10701;SDS011;5402;50.004;8.246;2023-08-06T07:42:33;1.10;;;0.77;;
10701;SDS011;5402;50.004;8.246;2023-08-06T07:45:01;0.70;;;0.70;;
10701;SDS011;5402;50.004;8.246;2023-08-06T07:47:28;0.80;;;0.80;;
10701;SDS011;5402;50.004;8.246;2023-08-06T07:49:55;0.73;;;0.73;;
10701;SDS011;5402;50.004;8.246;2023-08-06T07:52:22;0.87;;;0.87;;
10701;SDS011;5402;50.004;8.246;2023-08-06T07:54:50;0.80;;;0.80;;
10701;SDS011;5402;50.004;8.246;2023-08-06T07:57:16;1.07;;;0.70;;
10701;SDS011;5402;50.004;8.246;2023-08-06T07:59:43;0.80;;;0.80;;
10701;SDS011;5402;50.004;8.246;2023-08-06T08:02:10;0.80;;;0.70;;
10701;SDS011;5402;50.004;8.246;2023-08-06T08:04:36;0.70;;;0.70;;
10701;SDS011;5402;50.004;8.246;2023-08-06T08:07:03;0.70;;;0.70;;
10701;SDS011;5402;50.004;8.246;2023-08-06T08:09:31;0.80;;;0.80;;
10701;SDS011;5402;50.004;8.246;2023-08-06T08:11:59;1.10;;;0.80;;
10701;SDS011;5402;50.004;8.246;2023-08-06T08:14:27;1.00;;;0.63;;
10701;SDS011;5402;50.004;8.246;2023-08-06T08:17:00;1.57;;;0.80;;
10701;SDS011;5402;50.004;8.246;2023-08-06T08:19:27;0.67;;;0.67;;
10701;SDS011;5402;50.004;8.246;2023-08-06T08:21:53;1.00;;;0.90;;
10701;SDS011;5402;50.004;8.246;2023-08-06T08:24:20;0.70;;;0.70;;
10701;SDS011;5402;50.004;8.246;2023-08-06T08:26:48;1.50;;;0.80;;
10701;SDS011;5402;50.004;8.246;2023-08-06T08:29:17;0.67;;;0.67;;
10701;SDS011;5402;50.004;8.246;2023-08-06T08:31:43;0.63;;;0.63;;
10701;SDS011;5402;50.004;8.246;2023-08-06T08:34:10;0.50;;;0.50;;
10701;SDS011;5402;50.004;8.246;2023-08-06T08:36:37;0.60;;;0.60;;
10701;SDS011;5402;50.004;8.246;2023-08-06T08:39:03;2.37;;;0.70;;
10701;SDS011;5402;50.004;8.246;2023-08-06T08:41:31;0.77;;;0.77;;
10701;SDS011;5402;50.004;8.246;2023-08-06T08:43:58;0.87;;;0.80;;
10701;SDS011;5402;50.004;8.246;2023-08-06T08:46:27;1.90;;;0.80;;
10701;SDS011;5402;50.004;8.246;2023-08-06T08:48:56;1.03;;;0.80;;
10701;SDS011;5402;50.004;8.246;2023-08-06T08:51:25;0.97;;;0.90;;
10701;SDS011;5402;50.004;8.246;2023-08-06T08:53:53;1.30;;;0.73;;
10701;SDS011;5402;50.004;8.246;2023-08-06T08:56:22;0.70;;;0.70;;
10701;SDS011;5402;50.004;8.246;2023-08-06T08:58:49;1.80;;;0.70;;
10701;SDS011;5402;50.004;8.246;2023-08-06T09:01:18;0.70;;;0.60;;
10701;SDS011;5402;50.004;8.246;2023-08-06T09:03:46;0.83;;;0.83;;
10701;SDS011;5402;50.004;8.246;2023-08-06T09:06:13;2.53;;;2.33;;
10701;SDS011;5402;50.004;8.246;2023-08-06T09:08:46;0.73;;;0.73;;
10701;SDS011;5402;50.004;8.246;2023-08-06T09:11:16;0.70;;;0.70;;
10701;SDS011;5402;50.004;8.246;2023-08-06T09:13:45;2.17;;;1.67;;
10701;SDS011;5402;50.004;8.246;2023-08-06T09:16:13;2.70;;;2.07;;
10701;SDS011;5402;50.004;8.246;2023-08-06T09:18:39;1.17;;;1.07;;
10701;SDS011;5402;50.004;8.246;2023-08-06T09:21:08;1.93;;;1.30;;
10701;SDS011;5402;50.004;8.246;2023-08-06T09:23:41;0.80;;;0.80;;
10701;SDS011;5402;50.004;8.246;2023-08-06T09:26:09;0.43;;;0.43;;
10701;SDS011;5402;50.004;8.246;2023-08-06T09:28:38;1.50;;;0.77;;
10701;SDS011;5402;50.004;8.246;2023-08-06T09:31:07;1.27;;;0.40;;
10701;SDS011;5402;50.004;8.246;2023-08-06T09:33:35;0.83;;;0.77;;
10701;SDS011;5402;50.004;8.246;2023-08-06T09:36:11;1.27;;;0.50;;
10701;SDS011;5402;50.004;8.246;2023-08-06T09:38:38;0.43;;;0.40;;
10701;SDS011;5402;50.004;8.246;2023-08-06T09:41:06;0.60;;;0.60;;
10701;SDS011;5402;50.004;8.246;2023-08-06T09:43:39;0.50;;;0.50;;
10701;SDS011;5402;50.004;8.246;2023-08-06T09:46:10;0.67;;;0.67;;
10701;SDS011;5402;50.004;8.246;2023-08-06T09:48:39;0.50;;;0.50;;
10701;SDS011;5402;50.004;8.246;2023-08-06T09:51:06;0.63;;;0.57;;
10701;SDS011;5402;50.004;8.246;2023-08-06T09:53:35;0.70;;;0.70;;
10701;SDS011;5402;50.004;8.246;2023-08-06T09:56:04;0.80;;;0.80;;
10701;SDS011;5402;50.004;8.246;2023-08-06T09:58:31;0.73;;;0.70;;
10701;SDS011;5402;50.004;8.246;2023-08-06T10:00:59;0.80;;;0.77;;
10701;SDS011;5402;50.004;8.246;2023-08-06T10:03:27;0.83;;;0.83;;
10701;SDS011;5402;50.004;8.246;2023-08-06T10:05:55;1.13;;;0.90;;
10701;SDS011;5402;50.004;8.246;2023-08-06T10:08:22;0.80;;;0.80;;
10701;SDS011;5402;50.004;8.246;2023-08-06T10:10:51;0.60;;;0.60;;
10701;SDS011;5402;50.004;8.246;2023-08-06T10:13:18;0.55;;;0.55;;
10701;SDS011;5402;50.004;8.246;2023-08-06T10:15:47;0.73;;;0.73;;
10701;SDS011;5402;50.004;8.246;2023-08-06T10:18:16;0.60;;;0.60;;
10701;SDS011;5402;50.004;8.246;2023-08-06T10:20:46;0.80;;;0.80;;
10701;SDS011;5402;50.004;8.246;2023-08-06T10:23:13;0.87;;;0.60;;
10701;SDS011;5402;50.004;8.246;2023-08-06T10:25:40;0.50;;;0.50;;
10701;SDS011;5402;50.004;8.246;2023-08-06T10:28:09;0.57;;;0.57;;
10701;SDS011;5402;50.004;8.246;2023-08-06T10:30:41;0.60;;;0.60;;
10701;SDS011;5402;50.004;8.246;2023-08-06T10:33:09;1.07;;;0.80;;
10701;SDS011;5402;50.004;8.246;2023-08-06T10:35:36;0.83;;;0.70;;
10701;SDS011;5402;50.004;8.246;2023-08-06T10:38:04;0.50;;;0.50;;
10701;SDS011;5402;50.004;8.246;2023-08-06T10:40:33;0.53;;;0.53;;
10701;SDS011;5402;50.004;8.246;2023-08-06T10:43:00;0.60;;;0.60;;
10701;SDS011;5402;50.004;8.246;2023-08-06T10:45:29;0.50;;;0.50;;
10701;SDS011;5402;50.004;8.246;2023-08-06T10:47:56;0.63;;;0.63;;
10701;SDS011;5402;50.004;8.246;2023-08-06T10:50:23;0.50;;;0.50;;
10701;SDS011;5402;50.004;8.246;2023-08-06T10:52:50;0.53;;;0.53;;
10701;SDS011;5402;50.004;8.246;2023-08-06T10:55:24;0.53;;;0.53;;
10701;SDS011;5402;50.004;8.246;2023-08-06T10:57:51;0.30;;;0.30;;
10701;SDS011;5402;50.004;8.246;2023-08-06T11:00:19;0.50;;;0.50;;
10701;SDS011;5402;50.004;8.246;2023-08-06T11:02:49;0.30;;;0.30;;
10701;SDS011;5402;50.004;8.246;2023-08-06T11:05:16;0.10;;;0.10;;
10701;SDS011;5402;50.004;8.246;2023-08-06T11:07:43;0.30;;;0.30;;
10701;SDS011;5402;50.004;8.246;2023-08-06T11:10:10;0.30;;;0.20;;
10701;SDS011;5402;50.004;8.246;2023-08-06T11:12:38;0.40;;;0.40;;
10701;SDS011;5402;50.004;8.246;2023-08-06T11:15:06;0.63;;;0.63;;
10701;SDS011;5402;50.004;8.246;2023-08-06T11:17:33;0.30;;;0.30;;
10701;SDS011;5402;50.004;8.246;2023-08-06T11:20:03;0.40;;;0.40;;
10701;SDS011;5402;50.004;8.246;2023-08-06T11:22:31;0.40;;;0.40;;
10701;SDS011;5402;50.004;8.246;2023-08-06T11:24:58;0.33;;;0.30;;
10701;SDS011;5402;50.004;8.246;2023-08-06T11:27:26;0.40;;;0.40;;
10701;SDS011;5402;50.004;8.246;2023-08-06T11:29:53;0.50;;;0.40;;
10701;SDS011;5402;50.004;8.246;2023-08-06T11:32:20;0.50;;;0.30;;
10701;SDS011;5402;50.004;8.246;2023-08-06T11:34:47;0.63;;;0.60;;
10701;SDS011;5402;50.004;8.246;2023-08-06T11:37:15;0.60;;;0.60;;
10701;SDS011;5402;50.004;8.246;2023-08-06T11:39:44;0.50;;;0.50;;
10701;SDS011;5402;50.004;8.246;2023-08-06T11:42:13;0.70;;;0.70;;
10701;SDS011;5402;50.004;8.246;2023-08-06T11:44:40;0.93;;;0.93;;
10701;SDS011;5402;50.004;8.246;2023-08-06T11:47:11;1.70;;;0.87;;
10701;SDS011;5402;50.004;8.246;2023-08-06T11:49:41;0.70;;;0.70;;
10701;SDS011;5402;50.004;8.246;2023-08-06T11:52:17;1.17;;;0.60;;
10701;SDS011;5402;50.004;8.246;2023-08-06T11:54:46;1.87;;;1.00;;
10701;SDS011;5402;50.004;8.246;2023-08-06T11:57:15;0.50;;;0.50;;
10701;SDS011;5402;50.004;8.246;2023-08-06T11:59:42;1.77;;;0.90;;
10701;SDS011;5402;50.004;8.246;2023-08-06T12:02:09;0.70;;;0.70;;
10701;SDS011;5402;50.004;8.246;2023-08-06T12:07:32;0.87;;;0.87;;
10701;SDS011;5402;50.004;8.246;2023-08-06T12:09:59;0.80;;;0.80;;
10701;SDS011;5402;50.004;8.246;2023-08-06T12:12:26;1.53;;;0.80;;
10701;SDS011;5402;50.004;8.246;2023-08-06T12:14:53;1.03;;;0.70;;
10701;SDS011;5402;50.004;8.246;2023-08-06T12:17:21;0.80;;;0.80;;
10701;SDS011;5402;50.004;8.246;2023-08-06T12:19:48;1.70;;;1.00;;
10701;SDS011;5402;50.004;8.246;2023-08-06T12:22:14;1.10;;;0.90;;
10701;SDS011;5402;50.004;8.246;2023-08-06T12:24:42;1.73;;;0.90;;
10701;SDS011;5402;50.004;8.246;2023-08-06T12:27:10;2.43;;;0.80;;
10701;SDS011;5402;50.004;8.246;2023-08-06T12:29:37;1.10;;;0.77;;
10701;SDS011;5402;50.004;8.246;2023-08-06T12:32:06;0.70;;;0.70;;
10701;SDS011;5402;50.004;8.246;2023-08-06T12:34:33;0.93;;;0.93;;
10701;SDS011;5402;50.004;8.246;2023-08-06T12:37:00;0.80;;;0.80;;
10701;SDS011;5402;50.004;8.246;2023-08-06T12:39:27;1.23;;;1.10;;
10701;SDS011;5402;50.004;8.246;2023-08-06T12:41:55;1.20;;;1.10;;
10701;SDS011;5402;50.004;8.246;2023-08-06T12:44:23;1.50;;;1.10;;
10701;SDS011;5402;50.004;8.246;2023-08-06T12:46:50;1.90;;;1.00;;
10701;SDS011;5402;50.004;8.246;2023-08-06T12:49:17;1.90;;;1.10;;
10701;SDS011;5402;50.004;8.246;2023-08-06T12:51:46;1.80;;;1.10;;
10701;SDS011;5402;50.004;8.246;2023-08-06T12:54:12;2.67;;;1.20;;
10701;SDS011;5402;50.004;8.246;2023-08-06T12:56:39;2.23;;;1.10;;
10701;SDS011;5402;50.004;8.246;2023-08-06T12:59:07;2.13;;;1.20;;
10701;SDS011;5402;50.004;8.246;2023-08-06T13:01:34;1.40;;;1.30;;
10701;SDS011;5402;50.004;8.246;2023-08-06T13:04:01;2.30;;;1.30;;
10701;SDS011;5402;50.004;8.246;2023-08-06T13:06:28;1.90;;;1.20;;
10701;SDS011;5402;50.004;8.246;2023-08-06T13:08:55;1.13;;;1.03;;
10701;SDS011;5402;50.004;8.246;2023-08-06T13:11:23;1.60;;;1.30;;
10701;SDS011;5402;50.004;8.246;2023-08-06T13:13:50;2.20;;;1.30;;
10701;SDS011;5402;50.004;8.246;2023-08-06T13:16:18;2.13;;;1.50;;
10701;SDS011;5402;50.004;8.246;2023-08-06T13:18:44;2.03;;;1.60;;
10701;SDS011;5402;50.004;8.246;2023-08-06T13:21:11;1.70;;;1.60;;
10701;SDS011;5402;50.004;8.246;2023-08-06T13:23:39;1.50;;;1.37;;
10701;SDS011;5402;50.004;8.246;2023-08-06T13:26:05;2.80;;;1.53;;
10701;SDS011;5402;50.004;8.246;2023-08-06T13:28:32;9.77;;;2.93;;
10701;SDS011;5402;50.004;8.246;2023-08-06T13:30:59;1.90;;;1.50;;
10701;SDS011;5402;50.004;8.246;2023-08-06T13:33:27;1.47;;;1.20;;
10701;SDS011;5402;50.004;8.246;2023-08-06T13:35:54;2.57;;;1.10;;
10701;SDS011;5402;50.004;8.246;2023-08-06T13:38:20;1.33;;;1.10;;
10701;SDS011;5402;50.004;8.246;2023-08-06T13:40:47;1.23;;;0.90;;
10701;SDS011;5402;50.004;8.246;2023-08-06T13:43:14;0.90;;;0.90;;
10701;SDS011;5402;50.004;8.246;2023-08-06T13:45:44;1.57;;;0.80;;
10701;SDS011;5402;50.004;8.246;2023-08-06T13:48:11;0.97;;;0.87;;
10701;SDS011;5402;50.004;8.246;2023-08-06T13:50:39;1.27;;;0.80;;
10701;SDS011;5402;50.004;8.246;2023-08-06T13:53:05;0.97;;;0.70;;
10701;SDS011;5402;50.004;8.246;2023-08-06T13:55:32;0.50;;;0.50;;
10701;SDS011;5402;50.004;8.246;2023-08-06T13:57:59;0.70;;;0.70;;
10701;SDS011;5402;50.004;8.246;2023-08-06T14:00:26;1.23;;;0.70;;
10701;SDS011;5402;50.004;8.246;2023-08-06T14:02:52;0.67;;;0.67;;
10701;SDS011;5402;50.004;8.246;2023-08-06T14:05:19;1.00;;;1.00;;
10701;SDS011;5402;50.004;8.246;2023-08-06T14:07:47;0.70;;;0.70;;
10701;SDS011;5402;50.004;8.246;2023-08-06T14:10:14;0.60;;;0.60;;
10701;SDS011;5402;50.004;8.246;2023-08-06T14:12:41;0.80;;;0.80;;
10701;SDS011;5402;50.004;8.246;2023-08-06T14:15:08;0.60;;;0.60;;
10701;SDS011;5402;50.004;8.246;2023-08-06T14:17:35;0.70;;;0.70;;
10701;SDS011;5402;50.004;8.246;2023-08-06T14:20:02;0.93;;;0.80;;
10701;SDS011;5402;50.004;8.246;2023-08-06T14:22:32;1.53;;;0.87;;
10701;SDS011;5402;50.004;8.246;2023-08-06T14:25:00;1.10;;;0.80;;
10701;SDS011;5402;50.004;8.246;2023-08-06T14:27:27;0.60;;;0.60;;
10701;SDS011;5402;50.004;8.246;2023-08-06T14:29:54;1.17;;;0.50;;
10701;SDS011;5402;50.004;8.246;2023-08-06T14:32:21;1.50;;;0.47;;
10701;SDS011;5402;50.004;8.246;2023-08-06T14:34:48;0.50;;;0.50;;
10701;SDS011;5402;50.004;8.246;2023-08-06T14:37:14;0.77;;;0.70;;
10701;SDS011;5402;50.004;8.246;2023-08-06T14:39:41;1.30;;;0.50;;
10701;SDS011;5402;50.004;8.246;2023-08-06T14:42:10;0.57;;;0.57;;
10701;SDS011;5402;50.004;8.246;2023-08-06T14:44:36;0.63;;;0.47;;
10701;SDS011;5402;50.004;8.246;2023-08-06T14:47:03;0.30;;;0.30;;
10701;SDS011;5402;50.004;8.246;2023-08-06T14:49:30;1.13;;;0.40;;
10701;SDS011;5402;50.004;8.246;2023-08-06T14:51:57;0.40;;;0.30;;
10701;SDS011;5402;50.004;8.246;2023-08-06T14:54:26;0.20;;;0.20;;
10701;SDS011;5402;50.004;8.246;2023-08-06T14:56:53;0.30;;;0.30;;
10701;SDS011;5402;50.004;8.246;2023-08-06T14:59:21;0.60;;;0.37;;
10701;SDS011;5402;50.004;8.246;2023-08-06T15:01:48;0.20;;;0.20;;
10701;SDS011;5402;50.004;8.246;2023-08-06T15:04:16;0.53;;;0.40;;